sensor_id;sensor_type;location;lat;lon;timestamp;P1;durP1;ratioP1;P2;durP2;ratioP2
30515;SDS011;17297;54.022;10.760;2022-12-18T00:01:48;11.05;;;7.25;;
30515;SDS011;17297;54.022;10.760;2022-12-18T00:04:24;12.73;;;7.55;;
30515;SDS011;17297;54.022;10.760;2022-12-18T00:06:50;11.43;;;7.28;;
30515;SDS011;17297;54.022;10.760;2022-12-18T00:09:16;13.38;;;8.23;;
30515;SDS011;17297;54.022;10.760;2022-12-18T00:11:42;13.00;;;8.50;;
30515;SDS011;17297;54.022;10.760;2022-12-18T00:14:08;13.88;;;8.25;;
30515;SDS011;17297;54.022;10.760;2022-12-18T00:16:35;12.75;;;7.35;;
30515;SDS011;17297;54.022;10.760;2022-12-18T00:19:02;12.38;;;7.55;;
30515;SDS011;17297;54.022;10.760;2022-12-18T00:21:28;11.63;;;8.13;;
30515;SDS011;17297;54.022;10.760;2022-12-18T00:23:55;13.38;;;7.80;;
30515;SDS011;17297;54.022;10.760;2022-12-18T00:26:22;10.93;;;7.68;;
30515;SDS011;17297;54.022;10.760;2022-12-18T00:28:53;10.07;;;7.38;;
30515;SDS011;17297;54.022;10.760;2022-12-18T00:31:19;16.55;;;8.45;;
30515;SDS011;17297;54.022;10.760;2022-12-18T00:33:46;11.57;;;7.63;;
30515;SDS011;17297;54.022;10.760;2022-12-18T00:36:13;12.40;;;9.15;;
30515;SDS011;17297;54.022;10.760;2022-12-18T00:38:41;12.00;;;8.00;;
30515;SDS011;17297;54.022;10.760;2022-12-18T00:41:09;12.38;;;8.05;;
30515;SDS011;17297;54.022;10.760;2022-12-18T00:43:36;12.27;;;7.43;;
30515;SDS011;17297;54.022;10.760;2022-12-18T00:46:02;13.07;;;8.23;;
30515;SDS011;17297;54.022;10.760;2022-12-18T00:48:28;11.07;;;7.95;;
30515;SDS011;17297;54.022;10.760;2022-12-18T00:50:53;11.23;;;7.10;;
30515;SDS011;17297;54.022;10.760;2022-12-18T00:53:19;11.38;;;7.35;;
30515;SDS011;17297;54.022;10.760;2022-12-18T00:55:45;11.48;;;7.95;;
30515;SDS011;17297;54.022;10.760;2022-12-18T00:58:12;11.13;;;7.22;;
30515;SDS011;17297;54.022;10.760;2022-12-18T01:00:38;12.00;;;6.95;;
30515;SDS011;17297;54.022;10.760;2022-12-18T01:03:04;13.93;;;8.52;;
30515;SDS011;17297;54.022;10.760;2022-12-18T01:05:30;12.43;;;8.70;;
30515;SDS011;17297;54.022;10.760;2022-12-18T01:07:56;9.85;;;6.30;;
30515;SDS011;17297;54.022;10.760;2022-12-18T01:10:21;11.95;;;8.55;;
30515;SDS011;17297;54.022;10.760;2022-12-18T01:12:48;8.43;;;6.80;;
30515;SDS011;17297;54.022;10.760;2022-12-18T01:15:16;12.73;;;7.55;;
30515;SDS011;17297;54.022;10.760;2022-12-18T01:17:42;9.93;;;7.05;;
30515;SDS011;17297;54.022;10.760;2022-12-18T01:20:09;10.18;;;7.15;;
30515;SDS011;17297;54.022;10.760;2022-12-18T01:22:35;12.45;;;7.35;;
30515;SDS011;17297;54.022;10.760;2022-12-18T01:25:00;8.90;;;7.15;;
30515;SDS011;17297;54.022;10.760;2022-12-18T01:27:26;13.07;;;8.43;;
30515;SDS011;17297;54.022;10.760;2022-12-18T01:29:51;11.43;;;7.72;;
30515;SDS011;17297;54.022;10.760;2022-12-18T01:32:18;9.52;;;7.65;;
30515;SDS011;17297;54.022;10.760;2022-12-18T01:34:44;13.70;;;7.60;;
30515;SDS011;17297;54.022;10.760;2022-12-18T01:37:09;9.85;;;7.07;;
30515;SDS011;17297;54.022;10.760;2022-12-18T01:39:35;12.43;;;7.85;;
30515;SDS011;17297;54.022;10.760;2022-12-18T01:42:14;9.50;;;6.75;;
30515;SDS011;17297;54.022;10.760;2022-12-18T01:47:25;13.13;;;7.40;;
30515;SDS011;17297;54.022;10.760;2022-12-18T01:49:54;8.88;;;6.40;;
30515;SDS011;17297;54.022;10.760;2022-12-18T01:52:21;13.45;;;7.68;;
30515;SDS011;17297;54.022;10.760;2022-12-18T01:54:47;12.25;;;7.15;;
30515;SDS011;17297;54.022;10.760;2022-12-18T01:57:15;10.73;;;7.50;;
30515;SDS011;17297;54.022;10.760;2022-12-18T01:59:41;12.68;;;7.55;;
30515;SDS011;17297;54.022;10.760;2022-12-18T02:02:10;10.05;;;7.03;;
30515;SDS011;17297;54.022;10.760;2022-12-18T02:04:36;11.43;;;7.20;;
30515;SDS011;17297;54.022;10.760;2022-12-18T02:07:20;11.55;;;7.13;;
30515;SDS011;17297;54.022;10.760;2022-12-18T02:10:15;9.05;;;5.78;;
30515;SDS011;17297;54.022;10.760;2022-12-18T02:12:52;11.88;;;7.38;;
30515;SDS011;17297;54.022;10.760;2022-12-18T02:18:08;11.32;;;7.32;;
30515;SDS011;17297;54.022;10.760;2022-12-18T02:20:41;10.05;;;6.65;;
30515;SDS011;17297;54.022;10.760;2022-12-18T02:26:29;12.75;;;6.78;;
30515;SDS011;17297;54.022;10.760;2022-12-18T02:29:00;13.75;;;7.75;;
30515;SDS011;17297;54.022;10.760;2022-12-18T02:31:34;12.30;;;7.72;;
30515;SDS011;17297;54.022;10.760;2022-12-18T02:34:05;9.93;;;7.05;;
30515;SDS011;17297;54.022;10.760;2022-12-18T02:36:37;12.35;;;8.18;;
30515;SDS011;17297;54.022;10.760;2022-12-18T02:39:07;12.35;;;7.68;;
30515;SDS011;17297;54.022;10.760;2022-12-18T02:41:39;10.35;;;7.53;;
30515;SDS011;17297;54.022;10.760;2022-12-18T02:44:09;13.23;;;8.05;;
30515;SDS011;17297;54.022;10.760;2022-12-18T02:46:51;10.77;;;7.25;;
30515;SDS011;17297;54.022;10.760;2022-12-18T02:52:09;12.98;;;7.15;;
30515;SDS011;17297;54.022;10.760;2022-12-18T02:57:24;8.88;;;6.15;;
30515;SDS011;17297;54.022;10.760;2022-12-18T03:00:08;10.88;;;7.63;;
30515;SDS011;17297;54.022;10.760;2022-12-18T03:02:39;12.80;;;7.65;;
30515;SDS011;17297;54.022;10.760;2022-12-18T03:05:17;10.18;;;6.82;;
30515;SDS011;17297;54.022;10.760;2022-12-18T03:07:53;9.32;;;7.28;;
30515;SDS011;17297;54.022;10.760;2022-12-18T03:10:29;10.70;;;6.32;;
30515;SDS011;17297;54.022;10.760;2022-12-18T03:13:00;11.32;;;7.60;;
30515;SDS011;17297;54.022;10.760;2022-12-18T03:15:43;12.18;;;7.72;;
30515;SDS011;17297;54.022;10.760;2022-12-18T03:18:14;12.70;;;9.02;;
30515;SDS011;17297;54.022;10.760;2022-12-18T03:20:44;20.23;;;8.82;;
30515;SDS011;17297;54.022;10.760;2022-12-18T03:23:17;10.70;;;7.43;;
30515;SDS011;17297;54.022;10.760;2022-12-18T03:25:48;9.95;;;6.75;;
30515;SDS011;17297;54.022;10.760;2022-12-18T03:28:21;12.20;;;6.82;;
30515;SDS011;17297;54.022;10.760;2022-12-18T03:30:55;6.63;;;5.28;;
30515;SDS011;17297;54.022;10.760;2022-12-18T03:33:29;13.23;;;7.20;;
30515;SDS011;17297;54.022;10.760;2022-12-18T03:36:00;11.90;;;7.25;;
30515;SDS011;17297;54.022;10.760;2022-12-18T03:38:26;13.43;;;7.53;;
30515;SDS011;17297;54.022;10.760;2022-12-18T03:40:56;13.68;;;9.10;;
30515;SDS011;17297;54.022;10.760;2022-12-18T03:43:49;18.42;;;9.20;;
30515;SDS011;17297;54.022;10.760;2022-12-18T03:48:52;9.02;;;6.95;;
30515;SDS011;17297;54.022;10.760;2022-12-18T03:51:31;12.63;;;7.25;;
30515;SDS011;17297;54.022;10.760;2022-12-18T03:54:05;10.23;;;7.47;;
30515;SDS011;17297;54.022;10.760;2022-12-18T03:56:40;12.40;;;7.60;;
30515;SDS011;17297;54.022;10.760;2022-12-18T03:59:11;14.63;;;8.75;;
30515;SDS011;17297;54.022;10.760;2022-12-18T04:01:41;11.70;;;8.68;;
30515;SDS011;17297;54.022;10.760;2022-12-18T04:04:13;11.73;;;7.25;;
30515;SDS011;17297;54.022;10.760;2022-12-18T04:06:41;13.55;;;8.13;;
30515;SDS011;17297;54.022;10.760;2022-12-18T04:09:10;11.50;;;7.70;;
30515;SDS011;17297;54.022;10.760;2022-12-18T04:11:41;13.45;;;8.50;;
30515;SDS011;17297;54.022;10.760;2022-12-18T04:14:10;11.25;;;7.40;;
30515;SDS011;17297;54.022;10.760;2022-12-18T04:16:35;16.52;;;9.38;;
30515;SDS011;17297;54.022;10.760;2022-12-18T04:19:03;11.15;;;7.47;;
30515;SDS011;17297;54.022;10.760;2022-12-18T04:21:34;11.85;;;7.60;;
30515;SDS011;17297;54.022;10.760;2022-12-18T04:24:00;11.63;;;8.23;;
30515;SDS011;17297;54.022;10.760;2022-12-18T04:26:26;10.57;;;7.15;;
30515;SDS011;17297;54.022;10.760;2022-12-18T04:29:02;11.30;;;7.85;;
30515;SDS011;17297;54.022;10.760;2022-12-18T04:31:28;12.60;;;8.38;;
30515;SDS011;17297;54.022;10.760;2022-12-18T04:33:54;12.73;;;8.23;;
30515;SDS011;17297;54.022;10.760;2022-12-18T04:36:19;11.50;;;7.63;;
30515;SDS011;17297;54.022;10.760;2022-12-18T04:38:46;12.60;;;8.18;;
30515;SDS011;17297;54.022;10.760;2022-12-18T04:41:14;12.63;;;8.00;;
30515;SDS011;17297;54.022;10.760;2022-12-18T04:43:41;13.25;;;8.82;;
30515;SDS011;17297;54.022;10.760;2022-12-18T04:46:06;11.43;;;7.38;;
30515;SDS011;17297;54.022;10.760;2022-12-18T04:48:33;14.25;;;8.15;;
30515;SDS011;17297;54.022;10.760;2022-12-18T04:51:01;11.20;;;7.15;;
30515;SDS011;17297;54.022;10.760;2022-12-18T04:53:29;13.90;;;8.63;;
30515;SDS011;17297;54.022;10.760;2022-12-18T04:56:08;13.50;;;7.03;;
30515;SDS011;17297;54.022;10.760;2022-12-18T04:58:36;10.88;;;6.90;;
30515;SDS011;17297;54.022;10.760;2022-12-18T05:01:03;14.43;;;7.43;;
30515;SDS011;17297;54.022;10.760;2022-12-18T05:03:28;13.05;;;7.03;;
30515;SDS011;17297;54.022;10.760;2022-12-18T05:05:54;12.98;;;8.27;;
30515;SDS011;17297;54.022;10.760;2022-12-18T05:08:19;12.85;;;7.47;;
30515;SDS011;17297;54.022;10.760;2022-12-18T05:10:44;12.02;;;8.10;;
30515;SDS011;17297;54.022;10.760;2022-12-18T05:13:10;13.07;;;8.35;;
30515;SDS011;17297;54.022;10.760;2022-12-18T05:15:35;12.70;;;6.65;;
30515;SDS011;17297;54.022;10.760;2022-12-18T05:18:00;11.82;;;8.10;;
30515;SDS011;17297;54.022;10.760;2022-12-18T05:20:27;11.73;;;7.88;;
30515;SDS011;17297;54.022;10.760;2022-12-18T05:22:53;11.40;;;7.43;;
30515;SDS011;17297;54.022;10.760;2022-12-18T05:25:19;14.43;;;8.30;;
30515;SDS011;17297;54.022;10.760;2022-12-18T05:27:45;11.60;;;7.20;;
30515;SDS011;17297;54.022;10.760;2022-12-18T05:30:11;10.48;;;7.32;;
30515;SDS011;17297;54.022;10.760;2022-12-18T05:32:36;11.68;;;7.85;;
30515;SDS011;17297;54.022;10.760;2022-12-18T05:35:02;15.05;;;8.85;;
30515;SDS011;17297;54.022;10.760;2022-12-18T05:37:28;15.40;;;8.07;;
30515;SDS011;17297;54.022;10.760;2022-12-18T05:39:53;13.43;;;7.78;;
30515;SDS011;17297;54.022;10.760;2022-12-18T05:42:19;12.98;;;7.47;;
30515;SDS011;17297;54.022;10.760;2022-12-18T05:44:45;16.40;;;8.45;;
30515;SDS011;17297;54.022;10.760;2022-12-18T05:47:10;13.50;;;8.52;;
30515;SDS011;17297;54.022;10.760;2022-12-18T05:49:35;11.07;;;8.40;;
30515;SDS011;17297;54.022;10.760;2022-12-18T05:52:00;12.60;;;7.65;;
30515;SDS011;17297;54.022;10.760;2022-12-18T05:54:29;11.95;;;8.00;;
30515;SDS011;17297;54.022;10.760;2022-12-18T05:56:54;12.05;;;7.13;;
30515;SDS011;17297;54.022;10.760;2022-12-18T05:59:19;13.18;;;7.97;;
30515;SDS011;17297;54.022;10.760;2022-12-18T06:01:45;13.05;;;7.68;;
30515;SDS011;17297;54.022;10.760;2022-12-18T06:04:11;14.98;;;7.60;;
30515;SDS011;17297;54.022;10.760;2022-12-18T06:06:36;12.00;;;7.20;;
30515;SDS011;17297;54.022;10.760;2022-12-18T06:09:02;12.27;;;7.70;;
30515;SDS011;17297;54.022;10.760;2022-12-18T06:11:33;16.40;;;8.35;;
30515;SDS011;17297;54.022;10.760;2022-12-18T06:14:00;18.55;;;9.23;;
30515;SDS011;17297;54.022;10.760;2022-12-18T06:16:27;12.00;;;8.10;;
30515;SDS011;17297;54.022;10.760;2022-12-18T06:18:53;14.07;;;7.95;;
30515;SDS011;17297;54.022;10.760;2022-12-18T06:21:20;12.63;;;7.47;;
30515;SDS011;17297;54.022;10.760;2022-12-18T06:23:46;12.10;;;7.55;;
30515;SDS011;17297;54.022;10.760;2022-12-18T06:26:11;11.80;;;6.70;;
30515;SDS011;17297;54.022;10.760;2022-12-18T06:28:38;13.93;;;8.25;;
30515;SDS011;17297;54.022;10.760;2022-12-18T06:31:03;12.82;;;6.75;;
30515;SDS011;17297;54.022;10.760;2022-12-18T06:33:29;16.25;;;7.70;;
30515;SDS011;17297;54.022;10.760;2022-12-18T06:36:05;14.15;;;7.80;;
30515;SDS011;17297;54.022;10.760;2022-12-18T06:38:36;12.00;;;8.63;;
30515;SDS011;17297;54.022;10.760;2022-12-18T06:41:07;9.85;;;5.85;;
30515;SDS011;17297;54.022;10.760;2022-12-18T06:43:34;10.88;;;7.90;;
30515;SDS011;17297;54.022;10.760;2022-12-18T06:45:59;14.45;;;7.70;;
30515;SDS011;17297;54.022;10.760;2022-12-18T06:48:25;12.30;;;7.40;;
30515;SDS011;17297;54.022;10.760;2022-12-18T06:50:51;11.43;;;7.05;;
30515;SDS011;17297;54.022;10.760;2022-12-18T06:53:16;11.25;;;5.78;;
30515;SDS011;17297;54.022;10.760;2022-12-18T06:55:41;12.25;;;7.40;;
30515;SDS011;17297;54.022;10.760;2022-12-18T06:58:07;11.15;;;6.63;;
30515;SDS011;17297;54.022;10.760;2022-12-18T07:00:32;12.63;;;6.97;;
30515;SDS011;17297;54.022;10.760;2022-12-18T07:02:57;12.60;;;8.65;;
30515;SDS011;17297;54.022;10.760;2022-12-18T07:05:23;13.07;;;7.60;;
30515;SDS011;17297;54.022;10.760;2022-12-18T07:07:48;9.90;;;7.00;;
30515;SDS011;17297;54.022;10.760;2022-12-18T07:10:14;14.00;;;9.25;;
30515;SDS011;17297;54.022;10.760;2022-12-18T07:12:39;14.60;;;8.25;;
30515;SDS011;17297;54.022;10.760;2022-12-18T07:15:04;13.35;;;8.02;;
30515;SDS011;17297;54.022;10.760;2022-12-18T07:17:30;10.27;;;6.70;;
30515;SDS011;17297;54.022;10.760;2022-12-18T07:19:56;11.88;;;7.40;;
30515;SDS011;17297;54.022;10.760;2022-12-18T07:22:21;14.52;;;7.30;;
30515;SDS011;17297;54.022;10.760;2022-12-18T07:24:47;12.30;;;8.00;;
30515;SDS011;17297;54.022;10.760;2022-12-18T07:27:14;10.02;;;6.07;;
30515;SDS011;17297;54.022;10.760;2022-12-18T07:29:40;12.40;;;6.63;;
30515;SDS011;17297;54.022;10.760;2022-12-18T07:32:05;13.00;;;6.97;;
30515;SDS011;17297;54.022;10.760;2022-12-18T07:34:32;13.93;;;7.55;;
30515;SDS011;17297;54.022;10.760;2022-12-18T07:36:57;12.63;;;6.65;;
30515;SDS011;17297;54.022;10.760;2022-12-18T07:39:22;11.95;;;7.03;;
30515;SDS011;17297;54.022;10.760;2022-12-18T07:41:48;11.07;;;6.80;;
30515;SDS011;17297;54.022;10.760;2022-12-18T07:44:33;10.70;;;6.80;;
30515;SDS011;17297;54.022;10.760;2022-12-18T07:46:58;11.73;;;7.05;;
30515;SDS011;17297;54.022;10.760;2022-12-18T07:49:24;11.90;;;7.80;;
30515;SDS011;17297;54.022;10.760;2022-12-18T07:51:49;12.82;;;7.22;;
30515;SDS011;17297;54.022;10.760;2022-12-18T07:54:14;12.30;;;6.40;;
30515;SDS011;17297;54.022;10.760;2022-12-18T07:56:40;14.52;;;6.63;;
30515;SDS011;17297;54.022;10.760;2022-12-18T07:59:05;14.27;;;7.35;;
30515;SDS011;17297;54.022;10.760;2022-12-18T08:01:31;13.77;;;7.63;;
30515;SDS011;17297;54.022;10.760;2022-12-18T08:03:56;13.23;;;7.07;;
30515;SDS011;17297;54.022;10.760;2022-12-18T08:06:22;15.07;;;8.30;;
30515;SDS011;17297;54.022;10.760;2022-12-18T08:08:48;13.88;;;8.70;;
30515;SDS011;17297;54.022;10.760;2022-12-18T08:11:13;13.93;;;9.32;;
30515;SDS011;17297;54.022;10.760;2022-12-18T08:13:38;16.38;;;8.82;;
30515;SDS011;17297;54.022;10.760;2022-12-18T08:16:05;18.85;;;8.80;;
30515;SDS011;17297;54.022;10.760;2022-12-18T08:18:32;12.85;;;7.82;;
30515;SDS011;17297;54.022;10.760;2022-12-18T08:21:07;13.82;;;7.88;;
30515;SDS011;17297;54.022;10.760;2022-12-18T08:23:37;12.77;;;8.00;;
30515;SDS011;17297;54.022;10.760;2022-12-18T08:26:03;12.48;;;7.78;;
30515;SDS011;17297;54.022;10.760;2022-12-18T08:28:29;13.23;;;8.43;;
30515;SDS011;17297;54.022;10.760;2022-12-18T08:30:55;10.88;;;7.32;;
30515;SDS011;17297;54.022;10.760;2022-12-18T08:33:20;17.08;;;7.88;;
30515;SDS011;17297;54.022;10.760;2022-12-18T08:35:45;14.80;;;8.70;;
30515;SDS011;17297;54.022;10.760;2022-12-18T08:38:11;17.77;;;8.23;;
30515;SDS011;17297;54.022;10.760;2022-12-18T08:40:36;14.77;;;7.45;;
30515;SDS011;17297;54.022;10.760;2022-12-18T08:43:01;14.45;;;7.50;;
30515;SDS011;17297;54.022;10.760;2022-12-18T08:45:46;16.38;;;7.15;;
30515;SDS011;17297;54.022;10.760;2022-12-18T08:48:11;13.27;;;7.20;;
30515;SDS011;17297;54.022;10.760;2022-12-18T08:50:36;17.83;;;8.63;;
30515;SDS011;17297;54.022;10.760;2022-12-18T08:53:02;11.10;;;7.72;;
30515;SDS011;17297;54.022;10.760;2022-12-18T08:55:27;13.45;;;7.00;;
30515;SDS011;17297;54.022;10.760;2022-12-18T08:57:53;12.80;;;7.65;;
30515;SDS011;17297;54.022;10.760;2022-12-18T09:00:18;12.57;;;7.70;;
30515;SDS011;17297;54.022;10.760;2022-12-18T09:02:44;19.52;;;8.95;;
30515;SDS011;17297;54.022;10.760;2022-12-18T09:05:09;15.48;;;8.25;;
30515;SDS011;17297;54.022;10.760;2022-12-18T09:07:35;12.65;;;7.55;;
30515;SDS011;17297;54.022;10.760;2022-12-18T09:10:00;12.15;;;6.93;;
30515;SDS011;17297;54.022;10.760;2022-12-18T09:12:25;16.98;;;8.05;;
30515;SDS011;17297;54.022;10.760;2022-12-18T09:14:51;13.95;;;7.30;;
30515;SDS011;17297;54.022;10.760;2022-12-18T09:17:16;13.88;;;8.55;;
30515;SDS011;17297;54.022;10.760;2022-12-18T09:19:42;13.63;;;7.00;;
30515;SDS011;17297;54.022;10.760;2022-12-18T09:22:08;12.27;;;6.80;;
30515;SDS011;17297;54.022;10.760;2022-12-18T09:24:34;12.80;;;7.25;;
30515;SDS011;17297;54.022;10.760;2022-12-18T09:27:00;15.18;;;7.88;;
30515;SDS011;17297;54.022;10.760;2022-12-18T09:29:25;11.68;;;7.80;;
30515;SDS011;17297;54.022;10.760;2022-12-18T09:31:50;17.10;;;10.27;;
30515;SDS011;17297;54.022;10.760;2022-12-18T09:34:16;16.73;;;9.02;;
30515;SDS011;17297;54.022;10.760;2022-12-18T09:36:41;10.93;;;6.80;;
30515;SDS011;17297;54.022;10.760;2022-12-18T09:39:07;12.95;;;7.38;;
30515;SDS011;17297;54.022;10.760;2022-12-18T09:44:12;12.77;;;7.85;;
30515;SDS011;17297;54.022;10.760;2022-12-18T09:46:40;12.40;;;7.28;;
30515;SDS011;17297;54.022;10.760;2022-12-18T09:49:12;11.02;;;6.82;;
30515;SDS011;17297;54.022;10.760;2022-12-18T09:54:51;12.27;;;6.47;;
30515;SDS011;17297;54.022;10.760;2022-12-18T09:57:15;11.40;;;6.45;;
30515;SDS011;17297;54.022;10.760;2022-12-18T09:59:48;12.52;;;6.25;;
30515;SDS011;17297;54.022;10.760;2022-12-18T10:02:19;11.82;;;7.13;;
30515;SDS011;17297;54.022;10.760;2022-12-18T10:04:48;15.40;;;7.47;;
30515;SDS011;17297;54.022;10.760;2022-12-18T10:07:27;14.25;;;7.28;;
30515;SDS011;17297;54.022;10.760;2022-12-18T10:21:10;14.73;;;7.10;;
30515;SDS011;17297;54.022;10.760;2022-12-18T10:26:15;8.53;;;5.47;;
30515;SDS011;17297;54.022;10.760;2022-12-18T10:28:41;11.90;;;6.30;;
30515;SDS011;17297;54.022;10.760;2022-12-18T10:31:07;13.07;;;6.82;;
30515;SDS011;17297;54.022;10.760;2022-12-18T10:33:41;13.05;;;7.07;;
30515;SDS011;17297;54.022;10.760;2022-12-18T10:36:07;11.98;;;6.55;;
30515;SDS011;17297;54.022;10.760;2022-12-18T10:38:32;14.60;;;6.43;;
30515;SDS011;17297;54.022;10.760;2022-12-18T10:40:59;14.63;;;7.65;;
30515;SDS011;17297;54.022;10.760;2022-12-18T10:43:37;9.93;;;6.07;;
30515;SDS011;17297;54.022;10.760;2022-12-18T10:48:33;12.93;;;6.72;;
30515;SDS011;17297;54.022;10.760;2022-12-18T10:51:01;11.15;;;6.65;;
30515;SDS011;17297;54.022;10.760;2022-12-18T10:53:29;13.50;;;7.40;;
30515;SDS011;17297;54.022;10.760;2022-12-18T10:55:58;15.18;;;8.18;;
30515;SDS011;17297;54.022;10.760;2022-12-18T11:01:12;12.68;;;8.02;;
30515;SDS011;17297;54.022;10.760;2022-12-18T11:06:15;11.07;;;7.10;;
30515;SDS011;17297;54.022;10.760;2022-12-18T11:08:44;13.10;;;6.28;;
30515;SDS011;17297;54.022;10.760;2022-12-18T11:11:22;9.55;;;6.22;;
30515;SDS011;17297;54.022;10.760;2022-12-18T11:13:59;12.20;;;6.90;;
30515;SDS011;17297;54.022;10.760;2022-12-18T11:16:29;16.52;;;6.55;;
30515;SDS011;17297;54.022;10.760;2022-12-18T11:21:46;13.82;;;7.63;;
30515;SDS011;17297;54.022;10.760;2022-12-18T11:24:49;12.07;;;6.55;;
30515;SDS011;17297;54.022;10.760;2022-12-18T11:27:04;11.82;;;6.22;;
30515;SDS011;17297;54.022;10.760;2022-12-18T11:29:32;11.05;;;6.63;;
30515;SDS011;17297;54.022;10.760;2022-12-18T11:32:13;10.70;;;6.60;;
30515;SDS011;17297;54.022;10.760;2022-12-18T11:34:50;10.88;;;6.93;;
30515;SDS011;17297;54.022;10.760;2022-12-18T11:37:22;9.45;;;6.28;;
30515;SDS011;17297;54.022;10.760;2022-12-18T11:39:56;12.80;;;6.72;;
30515;SDS011;17297;54.022;10.760;2022-12-18T11:45:23;12.80;;;6.32;;
30515;SDS011;17297;54.022;10.760;2022-12-18T11:48:02;13.50;;;7.80;;
30515;SDS011;17297;54.022;10.760;2022-12-18T11:53:02;13.88;;;7.05;;
30515;SDS011;17297;54.022;10.760;2022-12-18T11:58:10;9.88;;;6.38;;
30515;SDS011;17297;54.022;10.760;2022-12-18T12:00:58;14.43;;;7.85;;
30515;SDS011;17297;54.022;10.760;2022-12-18T12:06:34;12.13;;;6.00;;
30515;SDS011;17297;54.022;10.760;2022-12-18T12:09:23;11.90;;;6.90;;
30515;SDS011;17297;54.022;10.760;2022-12-18T12:12:10;11.20;;;6.78;;
30515;SDS011;17297;54.022;10.760;2022-12-18T12:15:10;11.68;;;7.40;;
30515;SDS011;17297;54.022;10.760;2022-12-18T12:31:39;12.10;;;6.78;;
30515;SDS011;17297;54.022;10.760;2022-12-18T12:34:19;15.05;;;7.63;;
30515;SDS011;17297;54.022;10.760;2022-12-18T12:39:30;15.60;;;8.90;;
30515;SDS011;17297;54.022;10.760;2022-12-18T12:42:01;21.55;;;8.77;;
30515;SDS011;17297;54.022;10.760;2022-12-18T12:44:48;14.82;;;8.77;;
30515;SDS011;17297;54.022;10.760;2022-12-18T12:47:31;15.88;;;8.80;;
30515;SDS011;17297;54.022;10.760;2022-12-18T12:50:02;20.75;;;8.65;;
30515;SDS011;17297;54.022;10.760;2022-12-18T12:52:53;13.00;;;8.18;;
30515;SDS011;17297;54.022;10.760;2022-12-18T12:55:26;19.38;;;9.55;;
30515;SDS011;17297;54.022;10.760;2022-12-18T12:57:55;15.73;;;7.77;;
30515;SDS011;17297;54.022;10.760;2022-12-18T13:00:50;15.38;;;7.60;;
30515;SDS011;17297;54.022;10.760;2022-12-18T13:03:27;17.38;;;9.10;;
30515;SDS011;17297;54.022;10.760;2022-12-18T13:08:56;19.90;;;10.30;;
30515;SDS011;17297;54.022;10.760;2022-12-18T13:11:57;16.85;;;9.93;;
30515;SDS011;17297;54.022;10.760;2022-12-18T13:14:35;22.50;;;8.50;;
30515;SDS011;17297;54.022;10.760;2022-12-18T13:17:24;17.25;;;9.15;;
30515;SDS011;17297;54.022;10.760;2022-12-18T13:20:04;20.10;;;10.27;;
30515;SDS011;17297;54.022;10.760;2022-12-18T13:22:38;17.20;;;8.07;;
30515;SDS011;17297;54.022;10.760;2022-12-18T13:36:00;19.65;;;8.88;;
30515;SDS011;17297;54.022;10.760;2022-12-18T13:38:35;20.98;;;9.52;;
30515;SDS011;17297;54.022;10.760;2022-12-18T13:43:43;19.75;;;8.38;;
30515;SDS011;17297;54.022;10.760;2022-12-18T13:49:02;18.50;;;8.18;;
30515;SDS011;17297;54.022;10.760;2022-12-18T13:51:31;12.70;;;7.28;;
30515;SDS011;17297;54.022;10.760;2022-12-18T13:53:59;18.02;;;8.90;;
30515;SDS011;17297;54.022;10.760;2022-12-18T13:56:28;14.48;;;7.25;;
30515;SDS011;17297;54.022;10.760;2022-12-18T13:59:17;14.00;;;6.63;;
30515;SDS011;17297;54.022;10.760;2022-12-18T14:01:50;14.02;;;7.30;;
30515;SDS011;17297;54.022;10.760;2022-12-18T14:04:23;17.10;;;7.97;;
30515;SDS011;17297;54.022;10.760;2022-12-18T14:06:56;16.77;;;7.43;;
30515;SDS011;17297;54.022;10.760;2022-12-18T14:09:28;15.23;;;7.75;;
30515;SDS011;17297;54.022;10.760;2022-12-18T14:11:55;18.73;;;8.07;;
30515;SDS011;17297;54.022;10.760;2022-12-18T14:14:44;13.52;;;7.50;;
30515;SDS011;17297;54.022;10.760;2022-12-18T14:17:12;22.73;;;8.82;;
30515;SDS011;17297;54.022;10.760;2022-12-18T14:19:42;18.35;;;8.77;;
30515;SDS011;17297;54.022;10.760;2022-12-18T14:22:17;16.27;;;7.10;;
30515;SDS011;17297;54.022;10.760;2022-12-18T14:25:05;20.30;;;8.75;;
30515;SDS011;17297;54.022;10.760;2022-12-18T14:27:44;16.00;;;7.20;;
30515;SDS011;17297;54.022;10.760;2022-12-18T14:33:05;14.68;;;7.85;;
30515;SDS011;17297;54.022;10.760;2022-12-18T14:35:33;16.58;;;8.75;;
30515;SDS011;17297;54.022;10.760;2022-12-18T14:40:41;21.48;;;10.15;;
30515;SDS011;17297;54.022;10.760;2022-12-18T14:43:14;22.90;;;8.98;;
30515;SDS011;17297;54.022;10.760;2022-12-18T14:45:40;14.32;;;7.45;;
30515;SDS011;17297;54.022;10.760;2022-12-18T14:48:08;17.65;;;8.68;;
30515;SDS011;17297;54.022;10.760;2022-12-18T14:50:41;22.55;;;10.75;;
30515;SDS011;17297;54.022;10.760;2022-12-18T14:53:18;18.40;;;10.20;;
30515;SDS011;17297;54.022;10.760;2022-12-18T14:55:47;18.45;;;7.95;;
30515;SDS011;17297;54.022;10.760;2022-12-18T14:58:14;19.17;;;10.25;;
30515;SDS011;17297;54.022;10.760;2022-12-18T15:00:42;24.02;;;10.32;;
30515;SDS011;17297;54.022;10.760;2022-12-18T15:03:08;21.17;;;8.82;;
30515;SDS011;17297;54.022;10.760;2022-12-18T15:05:34;22.10;;;10.25;;
30515;SDS011;17297;54.022;10.760;2022-12-18T15:08:01;16.73;;;8.48;;
30515;SDS011;17297;54.022;10.760;2022-12-18T15:10:33;28.02;;;11.60;;
30515;SDS011;17297;54.022;10.760;2022-12-18T15:18:04;18.30;;;8.45;;
30515;SDS011;17297;54.022;10.760;2022-12-18T15:20:31;16.52;;;8.82;;
30515;SDS011;17297;54.022;10.760;2022-12-18T15:23:04;19.80;;;8.68;;
30515;SDS011;17297;54.022;10.760;2022-12-18T15:25:36;22.08;;;8.80;;
30515;SDS011;17297;54.022;10.760;2022-12-18T15:28:03;21.17;;;10.40;;
30515;SDS011;17297;54.022;10.760;2022-12-18T15:30:29;18.50;;;8.60;;
30515;SDS011;17297;54.022;10.760;2022-12-18T15:35:57;19.70;;;8.75;;
30515;SDS011;17297;54.022;10.760;2022-12-18T15:38:27;18.88;;;9.63;;
30515;SDS011;17297;54.022;10.760;2022-12-18T15:40:53;22.17;;;9.65;;
30515;SDS011;17297;54.022;10.760;2022-12-18T15:43:20;17.38;;;8.35;;
30515;SDS011;17297;54.022;10.760;2022-12-18T15:46:11;18.65;;;10.30;;
30515;SDS011;17297;54.022;10.760;2022-12-18T15:48:48;23.70;;;11.32;;
30515;SDS011;17297;54.022;10.760;2022-12-18T15:53:45;23.48;;;10.73;;
30515;SDS011;17297;54.022;10.760;2022-12-18T15:56:13;21.08;;;9.80;;
30515;SDS011;17297;54.022;10.760;2022-12-18T15:58:59;24.95;;;12.38;;
30515;SDS011;17297;54.022;10.760;2022-12-18T16:01:26;19.67;;;11.90;;
30515;SDS011;17297;54.022;10.760;2022-12-18T16:03:52;19.63;;;11.13;;
30515;SDS011;17297;54.022;10.760;2022-12-18T16:06:18;23.77;;;10.13;;
30515;SDS011;17297;54.022;10.760;2022-12-18T16:08:44;20.55;;;9.95;;
30515;SDS011;17297;54.022;10.760;2022-12-18T16:11:16;19.10;;;8.68;;
30515;SDS011;17297;54.022;10.760;2022-12-18T16:16:46;18.58;;;10.57;;
30515;SDS011;17297;54.022;10.760;2022-12-18T16:19:16;19.83;;;10.23;;
30515;SDS011;17297;54.022;10.760;2022-12-18T16:21:42;19.50;;;9.52;;
30515;SDS011;17297;54.022;10.760;2022-12-18T16:24:11;22.80;;;10.23;;
30515;SDS011;17297;54.022;10.760;2022-12-18T16:26:39;21.65;;;9.40;;
30515;SDS011;17297;54.022;10.760;2022-12-18T16:29:06;21.83;;;9.73;;